Tiempo atmosférico en la estación meteorológica de Calanda, Teruel (459 m.)



Fecha
DESCASC
Temp. máxima en grados centígrados (hora)
DESCASC
Temp. mínima en grados centígrados (hora)
DESCASC
Temp. media en grados centígrados
DESCASC
Racha de viento máxima en m/sg (hora)
DESCASC
Velocidad máxima media en intervalos de 10 minutos(hora)
DESCASC
Precipitaciones diarias en mm
DESCASC
Precipitaciones de 00:00 a 06:00 en mm
DESCASC
Precipitaciones de 06:00 a 12:00 en mm
DESCASC
Precipitaciones de 12:00 a 18:00 en mm
DESCASC
Precipitaciones de 18:00 a 24:00 en mm
DESCASC
20-05-2018 22.4 (14:40) 12.5 (07:10) 17.4 10.56 (17:00) 6.94 (17:00) 0.6 0.6 0 0 0
19-05-2018 25.5 (16:00) 13.6 (05:40) 19.6 8.06 (21:20) 5.28 (19:50) 3.8 0 0 0 3.8
18-05-2018 24.1 (17:10) 12.1 (00:00) 18.1 9.44 (17:50) 5.28 (18:00) 0 0 0 0 0
17-05-2018 25.5 (17:20) 9.8 (00:00) 17.7 10 (18:00) 6.67 (18:10) 0 0 0 0 0
16-05-2018 24.2 (19:00) 10 (00:00) 17.1 6.39 (23:30) 3.61 (02:10) 0 0 0 0 0
15-05-2018 21 (17:40) 7.5 (00:00) 14.3 10.83 (08:50) 6.67 (08:50) 0 0 0 0 0
14-05-2018 17.9 (15:10) 7.6 (00:00) 12.7 15 (16:10) 9.17 (14:30) 0 0 0 0 0
13-05-2018 17.7 (16:30) 5.8 (00:00) 11.8 14.72 (13:20) 8.61 (15:30) 0 0 0 0 0
12-05-2018 26.4 (13:10) 9.3 (00:00) 17.8 14.72 (19:30) 9.72 (19:30) 3 0 0 1.4 1.6
11-05-2018 26.9 (18:10) 8.1 (06:20) 17.5 6.67 (21:40) 4.17 (21:50) 0 0 0 0 0
10-05-2018 21.9 (17:20) 12.6 (00:00) 17.3 11.67 (06:10) 7.5 (09:50) 0 0 0 0 0
09-05-2018 24.2 (18:20) 11 (00:00) 17.6 10.56 (15:10) 6.39 (12:00) 0 0 0 0 0
08-05-2018 25.3 (18:30) 14.4 (00:00) 19.8 12.78 (20:50) 7.78 (20:50) 0 0 0 0 0
07-05-2018 23.7 (17:20) 12.8 (00:00) 18.3 5.83 (05:30) 4.17 (05:30) 0.2 0 0.2 0 0
06-05-2018 23.1 (15:20) 10.4 (07:00) 16.8 5.83 (19:10) 4.17 (08:50) 0 0 0 0 0
05-05-2018 22.1 (16:10) 8.6 (00:00) 15.4 8.33 (10:50) 3.33 (00:30) 0 0 0 0 0
04-05-2018 20.4 (17:00) 6.7 (00:00) 13.5 11.11 (15:40) 6.39 (09:50) 0 0 0 0 0
03-05-2018 16.4 (14:40) 9.3 (00:00) 12.8 15.28 (08:50) 8.89 (08:40) 0 0 0 0 0
02-05-2018 19.7 (17:30) 6.1 (00:00) 12.9 12.22 (22:00) 8.06 (22:10) 0 0 0 0 0
01-05-2018 16.4 (16:50) 5 (07:20) 10.7 9.72 (09:20) 6.11 (10:20) 0 0 0 0 0
30-04-2018 15.3 (18:10) 5.3 (00:00) 10.3 11.11 (19:50) 6.11 (19:50) 0 0 0 0 0
29-04-2018 17 (17:30) 10 (00:00) 13.5 15.83 (15:00) 8.89 (14:30) 5.8 5 0 0.8 0
28-04-2018 23 (17:20) 9 (00:00) 16 14.17 (19:40) 7.5 (19:40) 1.4 0 0 0 1.4
27-04-2018 24.4 (14:10) 11.4 (00:00) 17.9 10 (23:00) 4.72 (22:00) 2.6 0 0 1 1.6
26-04-2018 22.4 (17:30) 11 (00:00) 16.7 7.5 (13:50) 3.89 (14:20) 0 0 0 0 0
25-04-2018 26.2 (18:00) 12 (00:00) 19.1 10.83 (21:40) 7.22 (21:50) 0 0 0 0 0
24-04-2018 26.7 (17:20) 11.2 (00:00) 19 6.94 (18:10) 3.89 (18:10) 0 0 0 0 0
23-04-2018 21.7 (14:00) 13.9 (08:00) 17.8 7.78 (15:40) 4.44 (15:40) 0 0 0 0 0
22-04-2018 24.2 (18:10) 11.5 (00:00) 17.9 11.11 (00:30) 5.83 (01:00) 0 0 0 0 0

Gráficas

Temp. máximas Temp. mínimas Temp. medias Precipitaciones Rachas de viento máximas Velocidades máximas media en intervalos de 10 minutos

Datos horarios

Fecha y hora oficial Temperatura (ºC) Velocidad del viento (km/h) Dirección del viento Racha (km/h) Dirección de racha Precipitación (mm) Presión (hPa) Tendencia (hPa) Humedad (%)
2018-05-21 23:00:00 15.9 3 Sur 8 Este 0 959.3 1.2 66
2018-05-21 22:00:00 16.5 2 Norte 8 Sur 0 958.5 0.8 65
2018-05-21 21:00:00 16.4 4 Sur 10 Sur 0 958.5 1.3 65
2018-05-21 20:00:00 16.5 4 Oeste 27 Sudoeste 0 958.1 1.8 63
2018-05-21 19:00:00 16.4 16 Sudoeste 28 Sudoeste 0 957.7 1.5 74
2018-05-21 18:00:00 19.8 18 Sur 46 Sudeste 0 957.2 0.5 44
2018-05-21 17:00:00 22.6 27 Sudeste 39 Sudeste 0 956.3 -1 41
2018-05-21 16:00:00 25.4 6 Nordeste 19 Nordeste 0 956.2 -1.8 29
2018-05-21 15:00:00 24.2 6 Norte 21 Nordeste 0 956.7 -1.8 30
2018-05-21 14:00:00 23.8 8 Nordeste 19 Este 0 957.3 -1.5 32
2018-05-21 13:00:00 22.8 6 Norte 12 Oeste 0 958 -0.8 33
2018-05-21 12:00:00 22.1 5 Este 13 Norte 0 958.5 -0.5 42
2018-05-21 11:00:00 20.5 4 Noroeste 10 Sudeste 0 958.8 0.1 47
2018-05-21 10:00:00 18.7 6 Este 16 Sudoeste 0 958.8 0.5 54
2018-05-21 09:00:00 15.3 5 Sur 14 Sudoeste 0 959 0.6 65
2018-05-21 08:00:00 13.8 7 Oeste 16 Oeste 0 958.7 0.3 77
2018-05-21 07:00:00 14.3 12 Sur 18 Sudoeste 0 958.3 -0.3 72
2018-05-21 06:00:00 14.1 9 Sudoeste 13 Sudoeste 0 958.4 -0.7 74
2018-05-21 05:00:00 13.9 3 Oeste 9 Sur 0 958.4 -1.1 79
2018-05-21 04:00:00 15.1 8 Sur 11 Sur 0 958.6 -1.4 72
2018-05-21 03:00:00 15.3 6 Sur 10 Sur 0 959.1 -0.9 71
2018-05-21 02:00:00 16.4 3 Sudoeste 13 Sur 0 959.5 -0.4 65
2018-05-21 01:00:00 16.7 2 Sudeste 18 Sudoeste 0 960 0.3 63
2018-05-21 00:00:00 17.3 10 Sur 19 Sur 0 960 0.7 60
2018-05-20 23:00:00 17.5 11 Sur 26 Sudeste 0 959.9 0.7 60
2018-05-20 22:00:00 17.6 9 Sudeste 20 Sudeste 0 959.7 0.5 64
2018-05-20 21:00:00 18.2 6 Sudeste 20 Sur 0 959.3 -0.4 58
2018-05-20 20:00:00 17.9 10 Sur 19 Sur 0 959.2 -1.3 53
2018-05-20 19:00:00 17.8 9 Sudeste 24 Sudeste 0 959.2 -1.5 54
2018-05-20 18:00:00 18 16 Sudeste 37 Sudeste 0 959.7 -1 52
2018-05-20 17:00:00 19.5 25 Sudeste 38 Sudeste 0 960.5 -0.5 47
2018-05-20 16:00:00 19.3 19 Este 35 Este 0 960.7 -1.2 53
2018-05-20 15:00:00 21 10 Este 21 Este 0 960.7 -1.8 52
2018-05-20 14:00:00 21.1 4 Sur 14 Norte 0 961 -1.7 49
2018-05-20 13:00:00 20.1 6 Norte 15 Oeste 0 961.9 -0.8 55
2018-05-20 12:00:00 18.8 6 Noroeste 13 Norte 0 962.5 -0.4 63
2018-05-20 11:00:00 17.3 3 Oeste 9 Noroeste 0 962.7 0.1 67
2018-05-20 10:00:00 16.7 2 Norte 8 Noroeste 0 962.7 0.4 70
2018-05-20 09:00:00 15.2 3 Oeste 9 Oeste 0 962.9 0.8 80
2018-05-20 08:00:00 13.6 0 Calma 5 Sudoeste 0 962.6 0.6 95
2018-05-20 07:00:00 12.6 2 Sur 9 Este 0 962.3 0 94
2018-05-20 06:00:00 12.8 3 Norte 9 Sudoeste 0 962.1 -0.2 91
2018-05-20 05:00:00 13.5 6 Sudoeste 10 Noroeste 0 962 -1.2 94
2018-05-20 04:00:00 14.1 4 Este 10 Este 0 962.3 -1.4 91
2018-05-20 03:00:00 14.2 4 Sur 13 Sur 0.2 962.3 -1.6 89
2018-05-20 02:00:00 14.6 4 Norte 10 Sudoeste 0 963.2 -0.2 92
2018-05-20 01:00:00 14.4 6 Sudoeste 10 Norte 0.4 963.7 1.1 93
2018-05-20 00:00:00 14.6 6 Nordeste 21 Sudeste 1.4 963.9 2.5 93
2018-05-19 23:00:00 15.2 8 Este 18 Oeste 1.8 963.4 2.5 90
2018-05-19 22:00:00 16.3 10 Noroeste 29 Oeste 0.6 962.6 1.9 74
2018-05-19 21:00:00 19.3 15 Oeste 25 Oeste 0 961.4 0.8 51
2018-05-19 20:00:00 20.5 16 Sudoeste 28 Sudoeste 0 960.9 -0.2 45
2018-05-19 19:00:00 22.5 10 Sudeste 21 Sudeste 0 960.7 -0.9 36
2018-05-19 18:00:00 22.9 18 Sudeste 26 Este 0 960.6 -1.7 35
2018-05-19 17:00:00 24 5 Norte 18 Este 0 961.1 -2 30
2018-05-19 16:00:00 25.3 5 Sudeste 15 Sudoeste 0 961.6 -2.3 26
2018-05-19 15:00:00 24 5 Noroeste 19 Norte 0 962.3 -2 29
2018-05-19 14:00:00 21.7 5 Norte 19 Norte 0 963.1 -1.3 41
2018-05-19 13:00:00 20.5 6 Norte 15 Norte 0 963.9 -0.6 49
2018-05-19 12:00:00 20.4 5 Sur 10 Norte 0 964.3 0 51
2018-05-19 11:00:00 17.5 2 Sur 10 Oeste 0 964.4 0.5 64
2018-05-19 10:00:00 16.6 7 Oeste 17 Oeste 0 964.5 1.1 70
2018-05-19 09:00:00 15.5 5 Sudoeste 13 Sudoeste 0 964.3 1.3 76
2018-05-19 08:00:00 14.4 8 Sudoeste 12 Sudoeste 0 963.9 0.9 70
2018-05-19 07:00:00 14 10 Sudoeste 14 Sudoeste 0 963.4 0.3 68
2018-05-19 06:00:00 13.6 8 Sudoeste 14 Sudoeste 0 963 -0.2 71
2018-05-19 05:00:00 14.3 10 Sudoeste 17 Sudoeste 0 963 -0.2 65
2018-05-19 04:00:00 14.7 6 Sudoeste 12 Sudoeste 0 963.1 -0.3 65
2018-05-19 03:00:00 14.8 7 Sudoeste 15 Oeste 0 963.2 -0.3 64
2018-05-19 02:00:00 15.5 10 Sudoeste 17 Sudoeste 0 963.2 -0.3 62
2018-05-19 01:00:00 15.5 8 Sudoeste 13 Sudoeste 0 963.4 0.7 61
2018-05-19 00:00:00 16.4 7 Sur 13 Sur 0 963.5 1.5 58
2018-05-18 23:00:00 17.3 8 Noroeste 16 Sur 0 963.5 1.8 56
2018-05-18 22:00:00 18.6 8 Sur 17 Sudeste 0 962.7 1 51
2018-05-18 21:00:00 19.1 3 Sur 15 Noroeste 0 962 0.4 40
2018-05-18 20:00:00 20.7 5 Sur 22 Sur 0 961.7 0 38
2018-05-18 19:00:00 21.8 11 Sur 27 Sudeste 0 961.7 -0.4 38
2018-05-18 18:00:00 21.1 19 Sudeste 34 Sur 0 961.6 -1.3 42
2018-05-18 17:00:00 23.5 8 Noroeste 15 Noroeste 0 961.7 -1.9 35
2018-05-18 16:00:00 23 6 Nordeste 13 Norte 0 962.1 -2.1 39
2018-05-18 15:00:00 20.9 4 Nordeste 17 Sudeste 0 962.9 -1.3 44
2018-05-18 14:00:00 19.7 5 Sudeste 13 Este 0 963.6 -0.5 50
2018-05-18 13:00:00 17.3 6 Noroeste 12 Nordeste 0 964.2 0.3 58
2018-05-18 12:00:00 16.2 7 Norte 15 Nordeste 0 964.2 0.6 61
2018-05-18 11:00:00 15.9 6 Norte 13 Nordeste 0 964.1 0.7 61
2018-05-18 10:00:00 16.5 6 Noroeste 15 Norte 0 963.9 0.9 59
2018-05-18 09:00:00 14.9 0 Calma 6 Noroeste 0 963.6 0.8 65
2018-05-18 08:00:00 13 2 Oeste 8 Oeste 0 963.4 0.8 77
2018-05-18 07:00:00 12.3 6 Oeste 9 Oeste 0 963 0.6 75
2018-05-18 06:00:00 13.5 6 Noroeste 17 Oeste 0 962.8 0.4 67
2018-05-18 05:00:00 15 3 Noroeste 18 Oeste 0 962.6 0.1 57
2018-05-18 04:00:00 15.2 8 Oeste 14 Sudoeste 0 962.4 -0.1 63
2018-05-18 03:00:00 15.6 11 Sudoeste 15 Sudoeste 0 962.4 0.4 60
2018-05-18 02:00:00 16.3 7 Sur 23 Sur 0 962.5 0.8 58
2018-05-18 01:00:00 16.7 12 Sur 30 Sur 0 962.5 1.6 57
2018-05-18 00:00:00 17.2 19 Sur 36 Sudeste 0 962 1.6 55
2018-05-17 23:00:00 18.3 15 Sur 30 Sur 0 961.7 1.8 53
2018-05-17 22:00:00 19 10 Sur 32 Sudeste 0 960.9 1 48
2018-05-17 21:00:00 20.1 18 Sur 32 Sur 0 960.4 0.4 42
2018-05-17 20:00:00 21.7 16 Sur 29 Sur 0 959.9 -0.2 38
2018-05-17 19:00:00 22.4 15 Sur 35 Sudeste 0 959.9 -0.9 38
2018-05-17 18:00:00 23.1 22 Sudeste 36 Sudeste 0 960 -1.2 37
2018-05-17 17:00:00 25 7 Este 23 Nordeste 0 960.1 -1.9 27
2018-05-17 16:00:00 23.6 6 Nordeste 26 Nordeste 0 960.8 -1.7 29
2018-05-17 15:00:00 22.5 13 Norte 23 Norte 0 961.2 -1.6 33
2018-05-17 14:00:00 21.5 8 Norte 22 Noroeste 0 962 -0.8 39
2018-05-17 13:00:00 19.9 9 Norte 18 Norte 0 962.5 -0.6 43
2018-05-17 12:00:00 18.9 8 Norte 18 Nordeste 0 962.8 -0.1 46
2018-05-17 11:00:00 17.8 6 Norte 13 Norte 0 962.8 -0.1 50
2018-05-17 10:00:00 16.2 3 Este 8 Norte 0 963.1 0.2 59
2018-05-17 09:00:00 13.7 6 Sudoeste 10 Sudoeste 0 962.9 0.2 69
2018-05-17 08:00:00 11.2 6 Sudoeste 11 Sudoeste 0 962.9 0.1 79
2018-05-17 07:00:00 9.8 2 Sudoeste 9 Sudoeste 0 962.9 0.3 81
2018-05-17 06:00:00 10.2 2 Oeste 11 Sudoeste 0 962.7 -0.1 78
2018-05-17 05:00:00 10.4 2 Sudoeste 8 Sudoeste 0 962.8 0 73
2018-05-17 04:00:00 11.6 4 Sudoeste 8 Sudoeste 0 962.6 -0.2 67
2018-05-17 03:00:00 12 0 Calma 7 Sudoeste 0 962.8 0.3 65
2018-05-17 02:00:00 13.7 2 Oeste 6 Oeste 0 962.8 1 60
2018-05-17 01:00:00 14.9 0 Calma 9 Oeste 0 962.8 1.5 56
2018-05-17 00:00:00 16.9 5 Oeste 23 Norte 0 962.5 1.5 49
2018-05-16 23:00:00 18.3 6 Sur 12 Sur 0 961.8 1.2 47
2018-05-16 22:00:00 19.3 5 Sur 17 Sur 0 961.3 0.5 43
2018-05-16 21:00:00 21.4 10 Sur 19 Sudeste 0 961 -0.1 34
2018-05-16 20:00:00 23.4 5 Norte 12 Norte 0 960.6 -0.9 28
2018-05-16 19:00:00 24.2 5 Este 18 Norte 0 960.8 -1.4 28
2018-05-16 18:00:00 23.8 9 Noroeste 18 Norte 0 961.1 -1.8 29
2018-05-16 17:00:00 23.1 8 Nordeste 21 Norte 0 961.5 -2.2 30
2018-05-16 16:00:00 22.5 7 Nordeste 21 Norte 0 962.2 -2.1 30
2018-05-16 15:00:00 21.5 11 Norte 20 Norte 0 962.9 -1.8 32
2018-05-16 14:00:00 19.9 11 Norte 19 Norte 0 963.7 -0.9 34
2018-05-16 13:00:00 18.8 9 Norte 19 Norte 0 964.3 -0.6 37
2018-05-16 12:00:00 17.6 7 Norte 17 Norte 0 964.7 0 36
2018-05-16 11:00:00 16.3 5 Noroeste 14 Noroeste 0 964.6 -0.2 39
2018-05-16 10:00:00 13.8 8 Noroeste 18 Sudoeste 0 964.9 0.5 44
2018-05-16 09:00:00 12.4 10 Oeste 19 Oeste 0 964.7 0.3 45
2018-05-16 08:00:00 10.9 10 Sudoeste 18 Sudoeste 0 964.8 0.5 49
2018-05-16 07:00:00 10.1 9 Sudoeste 18 Sudoeste 0 964.4 -0.1 53
2018-05-16 06:00:00 10.4 9 Oeste 20 Sudoeste 0 964.4 -0.4 57
2018-05-16 05:00:00 10.8 11 Sudoeste 19 Sudoeste 0 964.3 -0.6 59
2018-05-16 04:00:00 11.3 9 Oeste 19 Sudoeste 0 964.5 -0.5 61
2018-05-16 03:00:00 11.8 9 Oeste 22 Oeste 0 964.8 0 60
2018-05-16 02:00:00 12 10 Sudoeste 20 Sudoeste 0 964.9 0.4 61
2018-05-16 01:00:00 12 8 Oeste 18 Oeste 0 965 1.1 61
2018-05-16 00:00:00 12.7 11 Oeste 21 Oeste 0 964.8 1.6 58
2018-05-15 23:00:00 12.9 5 Sudoeste 15 Noroeste 0 964.5 1.9 57
2018-05-15 22:00:00 14.7 9 Noroeste 34 Noroeste 0 963.9 1.6 52
2018-05-15 21:00:00 16.8 21 Noroeste 32 Noroeste 0 963.2 0.8 45
2018-05-15 20:00:00 19.6 18 Noroeste 33 Noroeste 0 962.6 -0.2 37
2018-05-15 19:00:00 20.6 17 Noroeste 31 Noroeste 0 962.3 -0.9 33
2018-05-15 18:00:00 20.6 19 Noroeste 33 Noroeste 0 962.4 -1.6 32
2018-05-15 17:00:00 20.6 17 Noroeste 30 Oeste 0 962.8 -1.8 32
2018-05-15 16:00:00 19.7 17 Noroeste 30 Oeste 0 963.2 -1.9 33
2018-05-15 15:00:00 18.8 16 Noroeste 31 Noroeste 0 964 -1.6 34
2018-05-15 14:00:00 17.6 17 Noroeste 35 Oeste 0 964.6 -1.3 37
2018-05-15 13:00:00 16.3 19 Noroeste 34 Noroeste 0 965.1 -0.9 40
2018-05-15 12:00:00 14.9 21 Noroeste 37 Noroeste 0 965.6 -0.4 42
2018-05-15 11:00:00 13.2 19 Noroeste 33 Noroeste 0 965.9 -0.1 48
2018-05-15 10:00:00 11.9 22 Noroeste 36 Oeste 0 966 0.2 52
2018-05-15 09:00:00 11.2 21 Oeste 39 Oeste 0 966 0.4 55
2018-05-15 08:00:00 9.4 15 Oeste 25 Oeste 0 966 0.5 60
2018-05-15 07:00:00 7.6 10 Sudoeste 18 Sudoeste 0 965.8 0.2 66
2018-05-15 06:00:00 8 9 Sudoeste 23 Oeste 0 965.6 -0.1 64
2018-05-15 05:00:00 8.5 11 Oeste 26 Oeste 0 965.5 -0.5 62
2018-05-15 04:00:00 8.6 12 Oeste 28 Oeste 0 965.6 -0.6 59
2018-05-15 03:00:00 9.3 18 Oeste 33 Oeste 0 965.7 -0.4 56
2018-05-15 02:00:00 9.5 19 Oeste 33 Oeste 0 966 0 56
2018-05-15 01:00:00 9.9 18 Oeste 33 Oeste 0 966.2 0.6 55
2018-05-15 00:00:00 10.4 20 Oeste 39 Noroeste 0 966.1 1.5 54
2018-05-14 23:00:00 11 25 Noroeste 49 Noroeste 0 966 2.5 52
2018-05-14 22:00:00 11.9 22 Noroeste 48 Noroeste 0 965.6 2.9 50
2018-05-14 21:00:00 13.9 26 Noroeste 48 Noroeste 0 964.6 2 42
2018-05-14 20:00:00 15.6 28 Noroeste 54 Noroeste 0 963.5 0.7 34
2018-05-14 19:00:00 17 30 Noroeste 49 Noroeste 0 962.7 -0.1 30
2018-05-14 18:00:00 16.2 33 Noroeste 53 Noroeste 0 962.6 -0.6 29
2018-05-14 17:00:00 16.6 30 Noroeste 54 Noroeste 0 962.8 -0.8 29
2018-05-14 16:00:00 17.3 31 Noroeste 51 Noroeste 0 962.8 -0.9 26
2018-05-14 15:00:00 17.4 30 Noroeste 52 Noroeste 0 963.2 -0.9 28
2018-05-14 14:00:00 16.7 31 Noroeste 50 Oeste 0 963.6 -0.6 30
2018-05-14 13:00:00 16.1 26 Noroeste 47 Oeste 0 963.7 -0.7 34
2018-05-14 12:00:00 13.9 28 Noroeste 46 Oeste 0 964.1 -0.3 43
2018-05-14 11:00:00 13.7 26 Noroeste 50 Noroeste 0 964.2 -0.4 45
2018-05-14 10:00:00 12.3 24 Noroeste 41 Noroeste 0 964.4 0 51
2018-05-14 09:00:00 10.4 23 Noroeste 43 Noroeste 0 964.4 -0.1 59
2018-05-14 08:00:00 9.3 18 Noroeste 37 Oeste 0 964.6 -0.1 63
2018-05-14 07:00:00 8.7 19 Noroeste 36 Oeste 0 964.4 -0.5 64
2018-05-14 06:00:00 8.1 8 Oeste 19 Oeste 0 964.5 -0.7 66
2018-05-14 05:00:00 8 3 Oeste 12 Oeste 0 964.7 -1.1 64
2018-05-14 04:00:00 9.4 10 Oeste 27 Oeste 0 964.9 -1 58
2018-05-14 03:00:00 10 17 Oeste 32 Oeste 0 965.2 -0.9 55
2018-05-14 02:00:00 10.2 10 Oeste 23 Oeste 0 965.8 0 52
2018-05-14 01:00:00 10.6 13 Noroeste 30 Noroeste 0 965.9 0.8 50
2018-05-11 20:00:00 25.1 7 Norte 15 Norte 0 960.1 -0.7 30
2018-05-11 19:00:00 25.7 8 Norte 19 Norte 0 960.3 -1.1 29
2018-05-11 18:00:00 26.2 9 Nordeste 21 Norte 0 960.7 -1.3 28
2018-05-11 17:00:00 25.7 12 Nordeste 24 Norte 0 960.8 -1.7 29
2018-05-11 16:00:00 25.6 11 Nordeste 22 Nordeste 0 961.4 -1.9 29
2018-05-11 15:00:00 24.6 10 Norte 21 Este 0 962 -1.6 32
2018-05-11 14:00:00 23.3 8 Nordeste 22 Norte 0 962.5 -1.2 35
2018-05-11 13:00:00 21.3 9 Norte 16 Norte 0 963.3 -0.5 40
2018-05-11 12:00:00 19.9 4 Norte 13 Nordeste 0 963.6 -0.4 43
2018-05-11 11:00:00 17.4 4 Nordeste 10 Nordeste 0 963.7 -0.2 51
2018-05-11 10:00:00 15.7 4 Este 9 Este 0 963.8 -0.1 58
2018-05-11 09:00:00 12.3 0 Calma 12 Sudoeste 0 964 0.3 68
2018-05-11 08:00:00 10.1 8 Sudoeste 12 Sudoeste 0 963.9 0.1 78
2018-05-11 07:00:00 8.3 5 Sudoeste 12 Sudoeste 0 963.9 -0.3 82
2018-05-11 06:00:00 8.2 3 Sudoeste 6 Sudoeste 0 963.7 -0.9 81
2018-05-11 05:00:00 8.4 3 Sudoeste 6 Oeste 0 963.8 -1.1 79
2018-05-11 04:00:00 9 3 Sur 7 Oeste 0 964.2 -0.6 77
2018-05-11 03:00:00 9 3 Oeste 6 Oeste 0 964.6 -0.4 75
2018-05-11 02:00:00 10 3 Noroeste 7 Oeste 0 964.9 0.2 70
2018-05-11 01:00:00 11 0 Calma 6 Oeste 0 964.8 0.6 63
2018-05-11 00:00:00 13.2 0 Calma 11 Sudoeste 0 965 1.4 55
2018-05-10 23:00:00 14.3 7 Sudoeste 15 Sudoeste 0 964.7 2.1 52
2018-05-10 22:00:00 15.5 8 Noroeste 27 Norte 0 964.2 2.2 49
2018-05-10 21:00:00 17.4 14 Norte 28 Norte 0 963.6 1.7 43
2018-05-10 20:00:00 19.6 18 Norte 30 Noroeste 0 962.6 0.5 37
2018-05-10 19:00:00 21.3 16 Noroeste 28 Noroeste 0 962 -0.5 32
2018-05-10 18:00:00 21.4 17 Noroeste 31 Noroeste 0 961.9 -1 29
2018-05-10 17:00:00 21.5 19 Noroeste 36 Noroeste 0 962.1 -0.7 29
2018-05-10 16:00:00 20.8 19 Noroeste 37 Noroeste 0 962.5 -0.6 32
2018-05-10 15:00:00 20 18 Noroeste 33 Noroeste 0 962.9 -0.2 31
2018-05-10 14:00:00 19.2 19 Noroeste 36 Noroeste 0 962.8 -0.4 33
2018-05-10 13:00:00 18 17 Noroeste 36 Noroeste 0 963.1 0.3 34
2018-05-10 12:00:00 17 22 Noroeste 41 Oeste 0 963.1 0.7 35
2018-05-10 11:00:00 14.2 19 Noroeste 39 Noroeste 0 963.2 1.4 44
2018-05-10 10:00:00 13.4 25 Oeste 40 Noroeste 0 962.8 1.7 52
2018-05-10 09:00:00 13.2 23 Noroeste 37 Oeste 0 962.4 2 59
2018-05-10 08:00:00 12.6 20 Oeste 38 Oeste 0 961.8 1.9 62
2018-05-10 07:00:00 12.6 20 Oeste 42 Oeste 0 961.1 1.5 60
2018-05-10 06:00:00 12.9 25 Oeste 41 Noroeste 0 960.4 1.4 59
2018-05-10 05:00:00 13.5 20 Oeste 39 Oeste 0 959.9 1 53
2018-05-10 04:00:00 14.2 18 Oeste 34 Oeste 0 959.6 0.5 49
2018-05-10 03:00:00 14 5 Oeste 21 Sudoeste 0 959 -0.1 55
2018-05-10 02:00:00 14.8 12 Sudoeste 26 Oeste 0 958.9 0.5 53
2018-05-10 01:00:00 16 17 Oeste 31 Oeste 0 959.1 1.9 48
2018-05-10 00:00:00 16.4 11 Oeste 29 Oeste 0 959.1 3.2 50
2018-05-09 23:00:00 17 20 Noroeste 36 Noroeste 0 958.4 3.1 48
2018-05-09 22:00:00 18.2 18 Noroeste 32 Noroeste 0 957.2 2 47
2018-05-09 21:00:00 20.4 17 Noroeste 30 Noroeste 0 955.9 0.6 41
2018-05-09 20:00:00 22.6 17 Norte 28 Noroeste 0 955.3 -0.1 34
2018-05-09 19:00:00 23.8 15 Noroeste 34 Noroeste 0 955.2 -0.8 29
2018-05-09 18:00:00 23.8 20 Noroeste 34 Noroeste 0 955.3 -1.2 27
2018-05-09 17:00:00 23.8 21 Noroeste 35 Noroeste 0 955.4 -1.5 24
2018-05-09 16:00:00 23.5 18 Noroeste 38 Noroeste 0 956 -1.5 21
2018-05-09 15:00:00 22.6 16 Noroeste 34 Noroeste 0 956.5 -1.5 32
2018-05-09 14:00:00 21.3 16 Noroeste 34 Noroeste 0 956.9 -1.2 32
2018-05-09 13:00:00 20 18 Noroeste 35 Noroeste 0 957.5 -0.8 36
2018-05-09 12:00:00 18.5 23 Noroeste 35 Noroeste 0 958 -1 42
2018-05-09 11:00:00 16.9 13 Noroeste 28 Oeste 0 958.1 -0.9 52
2018-05-09 10:00:00 15.8 14 Oeste 23 Sudoeste 0 958.3 -0.3 66
2018-05-09 09:00:00 13.5 6 Sudoeste 13 Sudoeste 0 959 0.7 77
2018-05-09 08:00:00 12.8 5 Oeste 16 Noroeste 0 959 0.6 79
2018-05-09 07:00:00 11 5 Oeste 8 Oeste 0 958.6 0 83
2018-05-09 06:00:00 11.7 0 Calma 15 Noroeste 0 958.3 -0.6 80
2018-05-09 05:00:00 11.9 0 Calma 8 Oeste 0 958.4 -0.7 82
2018-05-09 04:00:00 12.8 4 Oeste 12 Oeste 0 958.6 -0.7 79
2018-05-09 03:00:00 13.7 5 Oeste 13 Sudoeste 0 958.9 -0.6 72
2018-05-09 02:00:00 14.4 8 Oeste 13 Sudoeste 0 959.1 0.1 69
2018-05-09 01:00:00 15.6 9 Oeste 30 Oeste 0 959.3 1.5 62
2018-05-09 00:00:00 16.6 13 Oeste 33 Oeste 0 959.5 1.6 58
2018-05-08 23:00:00 17.7 8 Oeste 35 Oeste 0 959 2.9 54
2018-05-08 22:00:00 18.9 21 Oeste 40 Noroeste 0 957.8 1.7 50
2018-05-08 21:00:00 21 23 Noroeste 46 Noroeste 0 957.9 1.5 43
2018-05-08 20:00:00 24.3 11 Norte 17 Norte 0 956.1 -0.6 33
2018-05-08 19:00:00 24.2 11 Norte 24 Noroeste 0 956.1 -1.2 34
2018-05-08 18:00:00 24.6 11 Norte 22 Norte 0 956.4 -1.4 35
2018-05-08 17:00:00 24.1 9 Norte 26 Noroeste 0 956.7 -1.5 38
2018-05-08 16:00:00 23.6 15 Norte 31 Noroeste 0 957.3 -1.5 39
2018-05-08 15:00:00 22.9 17 Noroeste 31 Noroeste 0 957.8 -1.2 42
2018-05-08 14:00:00 22 15 Norte 33 Noroeste 0 958.2 -0.9 48
2018-05-08 13:00:00 21.5 17 Noroeste 29 Noroeste 0 958.8 -0.6 48
2018-05-08 12:00:00 20 12 Noroeste 19 Noroeste 0 959 -0.1 54
2018-05-08 11:00:00 19.5 4 Norte 11 Oeste 0 959.1 0.1 60
2018-05-08 10:00:00 17.4 6 Sudoeste 14 Sudoeste 0 959.4 0.5 72
2018-05-08 09:00:00 15.7 8 Sur 12 Sudoeste 0 959.1 0.3 75
2018-05-08 08:00:00 15.1 8 Sudoeste 13 Sudoeste 0 959 0 76
2018-05-08 07:00:00 14.6 7 Sudoeste 15 Sudoeste 0 958.9 -0.2 77
2018-05-08 06:00:00 14.6 6 Sur 15 Sudoeste 0 958.8 -0.7 78
2018-05-08 05:00:00 14.5 12 Sudoeste 16 Sudoeste 0 959 -0.6 80
2018-05-08 04:00:00 14.8 9 Sudoeste 18 Sudoeste 0 959.1 -1 80
2018-05-08 03:00:00 15.2 12 Sudoeste 19 Sudoeste 0 959.5 -0.9 79
2018-05-08 02:00:00 15.8 13 Sudoeste 17 Sudoeste 0 959.6 -0.9 75
2018-05-08 01:00:00 16.1 8 Sudoeste 13 Sudoeste 0 960.1 -0.5 75
2018-05-08 00:00:00 16.7 7 Sudoeste 9 Sudoeste 0 960.4 0.2 70
2018-05-07 23:00:00 18.3 3 Sudoeste 6 Oeste 0 960.5 0.8 64
2018-05-07 22:00:00 19.4 2 Nordeste 10 Nordeste 0 960.6 0.7 58
2018-05-07 21:00:00 20.7 6 Norte 10 Nordeste 0 960.2 0.1 53
2018-05-07 20:00:00 21.5 6 Este 15 Nordeste 0 959.7 -0.8 48
2018-05-07 19:00:00 22.1 7 Norte 16 Nordeste 0 959.9 -1.1 47
2018-05-07 18:00:00 22.9 8 Norte 17 Nordeste 0 960.1 -1.9 44
2018-05-07 17:00:00 23 6 Este 18 Este 0 960.5 -2.2 44
2018-05-07 16:00:00 22.1 4 Nordeste 10 Norte 0 961 -2.2 49
2018-05-07 15:00:00 19.6 6 Norte 12 Norte 0 962 -1.3 61
2018-05-07 14:00:00 18.1 8 Norte 14 Norte 0 962.7 -0.6 68
2018-05-07 13:00:00 18.3 8 Norte 19 Norte 0 963.2 0 67
2018-05-07 12:00:00 19.9 10 Norte 16 Noroeste 0 963.3 0.3 58
2018-05-07 11:00:00 17.1 6 Noroeste 15 Noroeste 0 963.3 0.6 71
2018-05-07 10:00:00 14.9 7 Sudoeste 12 Sudoeste 0 963.2 0.8 76
2018-05-07 09:00:00 14.2 9 Sudoeste 19 Sudoeste 0 963 0.8 77
2018-05-07 08:00:00 12.9 9 Sur 17 Sudoeste 0.2 962.7 0.3 84
2018-05-07 07:00:00 13.6 11 Sudoeste 16 Sudoeste 0 962.4 -0.4 71
2018-05-07 06:00:00 13.7 12 Sudoeste 21 Sudoeste 0 962.2 -0.7 64
2018-05-07 05:00:00 13.7 13 Sudoeste 18 Sudoeste 0 962.4 -0.7 64
2018-05-07 04:00:00 13.7 12 Sudoeste 19 Sudoeste 0 962.8 -0.5 64
2018-05-07 03:00:00 14 12 Sudoeste 20 Sudoeste 0 962.9 -0.4 62
2018-05-07 02:00:00 14.1 13 Sudoeste 19 Sudoeste 0 963.1 -0.4 63
2018-05-07 01:00:00 15.2 11 Sudoeste 18 Sudoeste 0 963.3 0.3 59
2018-05-07 00:00:00 16.2 8 Sur 15 Sudoeste 0 963.3 0.8 55
2018-05-06 23:00:00 16.5 4 Sur 12 Sudoeste 0 963.5 1.3 53
2018-05-06 22:00:00 17.7 6 Sur 14 Sudeste 0 963 0.9 48
2018-05-06 21:00:00 18.8 5 Sur 12 Sur 0 962.5 0.2 47
2018-05-06 20:00:00 20.3 8 Sur 21 Sudeste 0 962.2 -0.3 48
2018-05-06 19:00:00 21.4 10 Sudeste 18 Sur 0 962.1 -0.8 44
2018-05-06 18:00:00 20.7 7 Este 18 Este 0 962.3 -1.1 46
2018-05-06 17:00:00 21 8 Este 17 Este 0 962.5 -1.6 46
2018-05-06 16:00:00 22 5 Este 17 Sudeste 0 962.9 -1.6 39
2018-05-06 15:00:00 21.5 6 Sudeste 15 Este 0 963.4 -1.4 41
2018-05-06 14:00:00 20.4 4 Norte 16 Norte 0 964.1 -0.6 44
2018-05-06 13:00:00 20.4 7 Norte 19 Nordeste 0 964.5 -0.3 46
2018-05-06 12:00:00 19.9 6 Nordeste 14 Norte 0 964.8 0.1 50
2018-05-06 11:00:00 19 6 Noroeste 13 Noroeste 0 964.7 -0.1 57
2018-05-06 10:00:00 17.3 2 Norte 17 Sudoeste 0 964.8 0.3 63
2018-05-06 09:00:00 14.2 9 Sudoeste 21 Sudoeste 0 964.7 0.6 74
2018-05-06 08:00:00 11.3 12 Sudoeste 16 Sudoeste 0 964.8 0.9 80
2018-05-06 07:00:00 10.6 9 Oeste 12 Oeste 0 964.5 0.7 83
2018-05-06 06:00:00 11.3 0 Calma 9 Sudoeste 0 964.1 0.3 79
2018-05-06 05:00:00 12.3 5 Oeste 13 Sudoeste 0 963.9 -0.1 75
2018-05-06 04:00:00 13.2 10 Oeste 12 Oeste 0 963.8 -0.5 70
2018-05-06 03:00:00 14.5 10 Sudoeste 14 Sudoeste 0 963.8 -0.7 64
2018-05-06 02:00:00 15.3 5 Sudoeste 11 Sudoeste 0 964 -0.1 59
2018-05-06 01:00:00 16.6 3 Sur 10 Sudoeste 0 964.3 0.7 55
2018-05-06 00:00:00 17 5 Sudoeste 13 Sudoeste 0 964.5 1.7 54
2018-05-05 23:00:00 17.3 6 Sudoeste 12 Sur 0 964.1 1.7 53
2018-05-05 22:00:00 18.1 6 Sur 11 Sur 0 963.6 1.7 49
2018-05-05 21:00:00 18.8 6 Sur 18 Sur 0 962.8 0.9 46
2018-05-05 20:00:00 20.8 6 Este 16 Nordeste 0 962.4 0.4 39
2018-05-05 19:00:00 21.6 8 Nordeste 16 Nordeste 0 961.9 -0.3 35
2018-05-05 18:00:00 21.6 8 Norte 17 Norte 0 961.9 -0.6 34
2018-05-05 17:00:00 21.9 5 Este 15 Este 0 962 -0.8 34
2018-05-05 16:00:00 21 6 Nordeste 21 Este 0 962.2 -0.9 36
2018-05-05 15:00:00 21.2 10 Este 18 Nordeste 0 962.5 -0.8 37
2018-05-05 14:00:00 18.8 8 Norte 18 Norte 0 962.8 -0.7 41
2018-05-05 13:00:00 18.5 8 Noroeste 23 Noroeste 0 963.1 -0.3 42
2018-05-05 12:00:00 17 8 Norte 18 Noroeste 0 963.3 -0.1 44
2018-05-05 11:00:00 15.8 12 Noroeste 30 Noroeste 0 963.5 0.4 47
2018-05-05 10:00:00 14.1 10 Oeste 18 Noroeste 0 963.4 0.7 51
2018-05-05 09:00:00 12 9 Sudoeste 13 Sudoeste 0 963.4 0.8 59
2018-05-05 08:00:00 10 6 Oeste 14 Sudoeste 0 963.1 0.5 66
2018-05-05 07:00:00 9.1 7 Oeste 12 Sudoeste 0 962.7 -0.2 69
2018-05-05 06:00:00 9 6 Oeste 10 Oeste 0 962.6 -0.5 68
2018-05-05 05:00:00 10 8 Sudoeste 16 Sudoeste 0 962.6 -0.7 62
2018-05-05 04:00:00 10.5 8 Sudoeste 14 Sudoeste 0 962.9 -0.5 60
2018-05-05 03:00:00 10.2 8 Oeste 14 Oeste 0 963.1 -0.2 61
2018-05-05 02:00:00 10.7 9 Oeste 16 Oeste 0 963.3 0.3 60
2018-05-05 01:00:00 11.6 10 Oeste 21 Oeste 0 963.4 1.3 57
2018-05-05 00:00:00 12.6 8 Oeste 20 Noroeste 0 963.3 2.3 54
2018-05-04 23:00:00 13.3 14 Noroeste 28 Noroeste 0 963 2.9 51
2018-05-04 22:00:00 14.3 15 Noroeste 27 Noroeste 0 962.1 2.4 48
2018-05-04 21:00:00 15.2 17 Noroeste 32 Noroeste 0 961 1.6 45
2018-05-04 20:00:00 17.1 21 Noroeste 37 Noroeste 0 960.1 1 40
2018-05-04 19:00:00 18 18 Noroeste 34 Noroeste 0 959.7 0.4 35
2018-05-04 18:00:00 18.8 18 Noroeste 30 Noroeste 0 959.4 0 31
2018-05-04 17:00:00 20.3 20 Noroeste 35 Noroeste 0 959.1 -0.9 28
2018-05-04 16:00:00 19.8 22 Noroeste 40 Noroeste 0 959.3 -0.8 29
2018-05-04 15:00:00 18.9 18 Noroeste 37 Noroeste 0 959.4 -0.9 32
2018-05-04 14:00:00 17.6 21 Noroeste 34 Noroeste 0 960 -0.8 34
2018-05-04 13:00:00 16.7 21 Noroeste 36 Noroeste 0 960.1 -1.1 35
2018-05-04 12:00:00 15.2 20 Noroeste 36 Oeste 0 960.3 -0.8 41
2018-05-04 11:00:00 13.5 21 Oeste 36 Oeste 0 960.8 -0.3 48
2018-05-04 10:00:00 11.5 22 Oeste 35 Oeste 0 961.2 0.6 55
2018-05-04 09:00:00 10.2 14 Oeste 26 Oeste 0 961.1 0.2 58
2018-05-04 08:00:00 8 10 Oeste 21 Oeste 0 961.1 0.1 64
2018-05-04 07:00:00 7.1 10 Sudoeste 19 Sudoeste 0 960.6 -0.6 66
2018-05-04 06:00:00 6.7 9 Sudoeste 19 Sudoeste 0 960.9 -0.5 66
2018-05-04 05:00:00 7 8 Sudoeste 17 Sudoeste 0 961 -0.8 64
2018-05-04 04:00:00 7.7 7 Oeste 21 Oeste 0 961.2 -0.8 62
2018-05-04 03:00:00 8.2 9 Oeste 21 Oeste 0 961.4 -0.6 60
2018-05-04 02:00:00 8.4 12 Oeste 28 Oeste 0 961.8 -0.2 57
2018-05-04 01:00:00 8.9 15 Oeste 39 Oeste 0 962 0.9 54
2018-05-04 00:00:00 9.3 18 Oeste 45 Oeste 0 962 1.6 54
2018-05-03 23:00:00 10 21 Oeste 40 Noroeste 0 962 2.5 51
2018-05-03 22:00:00 10.9 26 Noroeste 43 Oeste 0 961.1 1.9 49
2018-05-03 21:00:00 12 25 Noroeste 49 Oeste 0 960.4 1.5 48
2018-05-03 20:00:00 13.4 30 Noroeste 49 Noroeste 0 959.5 0.6 44
2018-05-03 19:00:00 15.1 29 Noroeste 47 Oeste 0 959.2 0.1 42
2018-05-03 18:00:00 15.6 28 Noroeste 45 Oeste 0 958.9 -0.6 41
2018-05-03 17:00:00 15.8 29 Noroeste 47 Noroeste 0 958.9 -1 41
2018-05-03 16:00:00 15.5 27 Noroeste 51 Oeste 0 959.1 -1.5 41
2018-05-03 15:00:00 15.9 28 Noroeste 48 Noroeste 0 959.5 -1.2 38
2018-05-03 14:00:00 15.6 31 Noroeste 53 Oeste 0 959.9 -0.9 38
2018-05-03 13:00:00 15 29 Noroeste 50 Noroeste 0 960.6 0.1 36
2018-05-03 12:00:00 14.2 27 Oeste 50 Oeste 0 960.7 0.6 38
2018-05-03 11:00:00 13.5 30 Oeste 50 Oeste 0 960.8 1.8 42
2018-05-03 10:00:00 12.9 26 Oeste 50 Noroeste 0 960.5 2.1 46
2018-05-03 09:00:00 11.7 30 Noroeste 55 Oeste 0 960.1 2 56
2018-05-03 08:00:00 11.8 26 Noroeste 50 Noroeste 0 959 0.6 66
2018-05-03 07:00:00 12.1 28 Noroeste 53 Noroeste 0 958.4 -0.2 66
2018-05-03 06:00:00 12.8 31 Noroeste 51 Oeste 0 958.1 -1.3 63
2018-05-03 05:00:00 13 29 Noroeste 49 Oeste 0 958.4 -1.2 60
2018-05-03 04:00:00 13.2 27 Noroeste 46 Oeste 0 958.6 -1 60
2018-05-03 03:00:00 13.1 14 Oeste 37 Oeste 0 959.4 -0.2 62
2018-05-03 02:00:00 13.2 22 Oeste 49 Noroeste 0 959.6 0 61
2018-05-03 01:00:00 13.2 24 Noroeste 42 Oeste 0 959.6 0.5 60
2018-05-03 00:00:00 13.2 19 Noroeste 35 Noroeste 0 959.6 1.2 59
2018-05-02 23:00:00 14 19 Noroeste 44 Noroeste 0 959.6 1.9 54
2018-05-02 22:00:00 14.9 28 Noroeste 44 Noroeste 0 959.1 1.6 47
2018-05-02 21:00:00 15.8 22 Noroeste 44 Noroeste 0 958.4 1 40
2018-05-02 20:00:00 18.1 23 Noroeste 42 Noroeste 0 957.7 0.2 33
2018-05-02 19:00:00 19.1 25 Noroeste 42 Noroeste 0 957.5 -0.5 28
2018-05-02 18:00:00 19.5 24 Noroeste 42 Oeste 0 957.4 -1 25
2018-05-02 17:00:00 19.1 16 Noroeste 37 Noroeste 0 957.5 -1.1 25
2018-05-02 16:00:00 18.7 19 Noroeste 44 Noroeste 0 958 -1.1 26
2018-05-02 15:00:00 17.8 27 Noroeste 37 Oeste 0 958.4 -1 24
2018-05-02 14:00:00 17.8 16 Noroeste 31 Noroeste 0 958.6 -0.9 26
2018-05-02 13:00:00 16.8 20 Noroeste 34 Noroeste 0 959.1 -0.5 28
2018-05-02 12:00:00 16.6 17 Noroeste 30 Noroeste 0 959.4 -0.2 27
2018-05-02 11:00:00 15.5 15 Noroeste 27 Norte 0 959.5 0.2 28
2018-05-02 10:00:00 13.8 14 Oeste 25 Oeste 0 959.6 0.6 37
2018-05-02 09:00:00 9.9 -- -- -- -- 0 959.6 0.3 51
2018-05-02 08:00:00 7.5 16 Sudoeste 24 Sudoeste 0 959.3 -0.1 57
2018-05-02 07:00:00 7.1 15 Sudoeste 22 Sudoeste 0 959 -0.6 58
2018-05-02 06:00:00 6.4 14 Sudoeste 21 Sudoeste 0 959.3 -0.7 63
2018-05-02 05:00:00 6.2 13 Sudoeste 18 Sudoeste 0 959.4 -0.8 63
2018-05-02 04:00:00 7.1 9 Sudoeste 16 Sudoeste 0 959.6 -0.6 59
2018-05-02 03:00:00 7.1 7 Sudoeste 15 Sudoeste 0 960 -0.3 59
2018-05-02 02:00:00 6.9 11 Sudoeste 17 Sudoeste 0 960.2 0 60
2018-05-02 01:00:00 7.7 9 Sudoeste 14 Sudoeste 0 960.2 0.3 56
2018-05-02 00:00:00 7.6 7 Sudoeste 13 Sudoeste 0 960.3 0.7 58
2018-05-01 23:00:00 8 8 Sudoeste 12 Sudoeste 0 960.2 1.2 56
2018-05-01 22:00:00 9.7 6 Oeste 15 Noroeste 0 959.9 1.3 51
2018-05-01 21:00:00 12.4 9 Noroeste 29 Noroeste 0 959.6 1 36
2018-05-01 20:00:00 14.2 18 Noroeste 30 Norte 0 959 0.3 29
2018-05-01 19:00:00 15.5 19 Noroeste 35 Noroeste 0 958.6 -0.6 23
2018-05-01 18:00:00 15.6 20 Noroeste 35 Noroeste 0 958.6 -1 29
2018-05-01 17:00:00 15.5 16 Noroeste 29 Noroeste 0 958.7 -1.4 28
2018-05-01 16:00:00 15.2 17 Noroeste 31 Norte 0 959.2 -1.4 32
2018-05-01 15:00:00 14.4 14 Noroeste 31 Oeste 0 959.6 -1.4 35
2018-05-01 14:00:00 13.7 16 Noroeste 32 Noroeste 0 960.1 -0.9 42
2018-05-01 13:00:00 11.7 18 Noroeste 30 Noroeste 0 960.6 -0.3 47
2018-05-01 12:00:00 10.2 21 Oeste 35 Oeste 0 961 0.1 53
2018-05-01 11:00:00 9.1 17 Noroeste 34 Noroeste 0 961 0.3 57
2018-05-01 10:00:00 8.6 19 Noroeste 35 Noroeste 0 960.9 0.4 58
2018-05-01 09:00:00 7.5 19 Oeste 29 Oeste 0 960.9 0.7 65
2018-05-01 08:00:00 6 9 Oeste 17 Oeste 0 960.7 0.2 75
2018-05-01 07:00:00 5.3 5 Sudoeste 16 Oeste 0 960.5 0.2 76
2018-05-01 06:00:00 5.8 10 Sudoeste 16 Sudoeste 0 960.2 -0.1 75
2018-05-01 05:00:00 5.5 8 Oeste 12 Sudoeste 0 960.5 -0.2 77
2018-05-01 04:00:00 6.4 8 Sudoeste 12 Sudoeste 0 960.3 -0.5 70
2018-05-01 03:00:00 7.6 6 Sudoeste 21 Oeste 0 960.3 -0.1 65
2018-05-01 02:00:00 7.9 4 Sudoeste 17 Oeste 0 960.7 0.3 65
2018-05-01 01:00:00 8 12 Noroeste 28 Noroeste 0 960.8 1 64
2018-05-01 00:00:00 8.7 4 Oeste 19 Oeste 0 960.4 1.2 62
2018-04-30 23:00:00 8.9 8 Oeste 16 Oeste 0 960.4 1.9 60
2018-04-30 22:00:00 10.4 5 Oeste 15 Oeste 0 959.8 2.1 54
2018-04-30 21:00:00 11.1 12 Oeste 33 Oeste 0 959.2 1.6 50
2018-04-30 20:00:00 11.1 22 Oeste 40 Oeste 0 958.5 0.6 54
2018-04-30 19:00:00 14.1 6 Nordeste 17 Este 0 957.7 -1 35
2018-04-30 18:00:00 14.9 4 Nordeste 22 Norte 0 957.6 -1.7 34
2018-04-30 17:00:00 14.2 11 Norte 21 Norte 0 957.9 -1.7 38
2018-04-30 16:00:00 13.9 8 Oeste 19 Sudoeste 0 958.7 -1.4 35
2018-04-30 15:00:00 13.7 6 Oeste 15 Oeste 0 959.3 -1 39
2018-04-30 14:00:00 13.1 5 Nordeste 13 Norte 0 959.6 -0.6 43
2018-04-30 13:00:00 12.4 6 Este 14 Este 0 960.1 0.1 43
2018-04-30 12:00:00 10.8 7 Nordeste 18 Norte 0 960.3 0.4 48
2018-04-30 11:00:00 10.5 9 Norte 15 Norte 0 960.2 0.8 51
2018-04-30 10:00:00 10.1 6 Norte 13 Norte 0 960 1 51
2018-04-30 09:00:00 8.6 4 Noroeste 9 Noroeste 0 959.9 0.9 55
2018-04-30 08:00:00 6.2 5 Oeste 7 Sudoeste 0 959.4 0.6 72
2018-04-30 07:00:00 5.5 2 Este 10 Oeste 0 959 0.1 70
2018-04-30 06:00:00 7 3 Norte 28 Sudoeste 0 959 0.1 64
2018-04-30 05:00:00 8.5 18 Sudoeste 30 Sudoeste 0 958.8 -0.2 57
2018-04-30 04:00:00 8.2 9 Oeste 20 Oeste 0 958.9 -0.2 59
2018-04-30 03:00:00 7.7 9 Sudoeste 16 Sudoeste 0 958.9 0 61
2018-04-30 02:00:00 7.9 12 Oeste 19 Sudoeste 0 959 0.3 62
2018-04-30 01:00:00 9.9 11 Sudoeste 18 Sudoeste 0 959.1 1.3 51
2018-04-30 00:00:00 10 8 Sudoeste 20 Sudoeste 0 958.9 2.1 51
2018-04-29 23:00:00 10.8 12 Sudoeste 22 Sudoeste 0 958.7 3 49
2018-04-29 22:00:00 11.3 17 Sudoeste 32 Oeste 0 957.8 3.1 49
2018-04-29 21:00:00 12.9 13 Sudoeste 35 Oeste 0 956.8 2.9 44
2018-04-29 20:00:00 14.4 21 Oeste 50 Oeste 0 955.7 2.5 39
2018-04-29 19:00:00 16.5 25 Oeste 45 Oeste 0 954.7 1.8 33
2018-04-29 18:00:00 15.8 26 Oeste 48 Oeste 0 953.9 1.4 35
2018-04-29 17:00:00 16.6 25 Oeste 44 Oeste 0 953.2 1.3 34
2018-04-29 16:00:00 15.1 28 Oeste 53 Oeste 0 952.9 0.5 40
2018-04-29 15:00:00 15.3 31 Oeste 57 Oeste 0 952.5 0.7 39
2018-04-29 14:00:00 14.2 13 Sudoeste 48 Oeste 0.8 951.9 0.4 53
2018-04-29 13:00:00 14.2 25 Oeste 49 Oeste 0 952.4 1.4 47
2018-04-29 12:00:00 14.1 17 Oeste 30 Oeste 0 951.8 0.7 44
2018-04-29 11:00:00 13.5 17 Oeste 34 Oeste 0 951.5 0.2 48
2018-04-29 10:00:00 14.3 16 Sudoeste 27 Sudoeste 0 951 -0.2 57
2018-04-29 09:00:00 11.6 4 Sudoeste 10 Sudoeste 0 951.1 -0.1 86
2018-04-29 08:00:00 10.8 3 Oeste 6 Sur 0 951.3 -0.4 91
2018-04-29 07:00:00 10.6 4 Sur 9 Sudeste 0 951.2 -1.1 91
2018-04-29 06:00:00 10.3 2 Sudoeste 11 Este 0 951.2 -0.4 92
2018-04-29 05:00:00 10.6 4 Sudoeste 13 Sudoeste 2.6 951.7 -0.2 88
2018-04-29 04:00:00 11.9 14 Oeste 33 Noroeste 1.4 952.3 0.3 79
2018-04-29 03:00:00 14.4 8 Noroeste 12 Noroeste 0 951.6 -0.3 87
2018-04-29 02:00:00 14.7 2 Sudeste 11 Sudoeste 1 951.9 -0.4 86
2018-04-29 01:00:00 15.6 8 Sudoeste 18 Sur 0 952 -0.1 73
2018-04-29 00:00:00 16.5 8 Sur 22 Sur 0 951.9 -0.1 63
2018-04-28 23:00:00 17 12 Sur 35 Sudeste 0 952.3 0.3 61
2018-04-28 22:00:00 17.4 25 Sur 41 Sudeste 0 952.1 0.5 63
2018-04-28 21:00:00 18.1 18 Sur 43 Sur 1.2 952 0.4 63
2018-04-28 20:00:00 18.1 23 Sur 51 Sudeste 0.2 952 -0.1 56
2018-04-28 19:00:00 21 17 Sur 39 Sudeste 0 951.6 -1.4 49
2018-04-28 18:00:00 22.6 15 Sur 32 Sudeste 0 951.6 -2.7 40
2018-04-28 17:00:00 22.4 7 Sudoeste 24 Noroeste 0 952.1 -3.1 45
2018-04-28 16:00:00 22.1 10 Noroeste 20 Norte 0 953 -3.2 58
2018-04-28 15:00:00 19.8 9 Norte 19 Norte 0 954.3 -2.7 68
2018-04-28 14:00:00 17.6 7 Norte 14 Norte 0 955.2 -2.2 72
2018-04-28 13:00:00 16.7 8 Norte 15 Norte 0 956.2 -1.5 72
2018-04-28 12:00:00 15.6 6 Nordeste 14 Nordeste 0 957 -0.9 73
2018-04-28 11:00:00 14 8 Norte 13 Norte 0 957.4 -0.5 72
2018-04-28 10:00:00 13.6 4 Norte 10 Este 0 957.7 0 75
2018-04-28 09:00:00 11.8 4 Nordeste 8 Nordeste 0 957.9 0.2 84
2018-04-28 08:00:00 10.7 2 Nordeste 4 Noroeste 0 957.9 -0.1 91
2018-04-28 07:00:00 9.9 0 Calma 5 Oeste 0 957.7 -0.4 94
2018-04-28 06:00:00 9 2 Noroeste 3 Oeste 0 957.7 -0.6 93
2018-04-28 05:00:00 9.9 0 Calma 4 Este 0 958 -0.7 92
2018-04-28 04:00:00 10.6 0 Calma 3 Este 0 958.1 -0.4 91
2018-04-28 03:00:00 11.5 0 Calma 8 Este 0 958.3 -0.1 90
2018-04-28 02:00:00 12.6 4 Este 9 Oeste 0 958.7 0.8 87
2018-04-28 01:00:00 13.9 8 Noroeste 18 Noroeste 0 958.5 1.1 84
2018-04-28 00:00:00 15.7 5 Sur 21 Sudeste 0 958.4 1 76
2018-04-27 23:00:00 17.6 16 Sudeste 36 Sudeste 0 957.9 1.1 66
2018-04-27 22:00:00 18.1 17 Sur 32 Sudeste 0 957.4 0.1 65
2018-04-27 21:00:00 17.6 6 Sudeste 24 Sudeste 0 957.4 0 77
2018-04-27 20:00:00 18.2 7 Sudeste 28 Sudeste 0 956.8 -0.9 74
2018-04-27 19:00:00 17.8 12 Sudeste 28 Este 1.6 957.3 0 81
2018-04-27 18:00:00 18.8 8 Sudeste 22 Este 0 957.4 0.1 67
2018-04-27 17:00:00 16.9 12 Sudeste 31 Sur 1 957.7 0 77
2018-04-27 16:00:00 22.6 6 Norte 23 Norte 0 957.3 -1 41
2018-04-27 15:00:00 23.6 12 Norte 22 Norte 0 957.3 -1.3 39
2018-04-27 14:00:00 24 12 Norte 23 Noroeste 0 957.7 -1 38
2018-04-27 13:00:00 23.2 9 Norte 18 Norte 0 958.3 -0.3 39
2018-04-27 12:00:00 22.1 6 Nordeste 14 Norte 0 958.6 -0.1 43
2018-04-27 11:00:00 20.6 6 Este 12 Este 0 958.7 0.1 49
2018-04-27 10:00:00 17.5 4 Sudeste 8 Sudeste 0 958.6 0.3 56
2018-04-27 09:00:00 14.3 4 Norte 10 Sudoeste 0 958.7 0.2 64
2018-04-27 08:00:00 12.3 8 Sudoeste 17 Sudoeste 0 958.6 -0.3 72
2018-04-27 07:00:00 11.9 9 Sudoeste 14 Sudoeste 0 958.3 -0.9 76
2018-04-27 06:00:00 11.7 4 Sudoeste 14 Sudoeste 0 958.5 -1.4 75
2018-04-27 05:00:00 11.5 4 Sudoeste 13 Sudoeste 0 958.9 -1.6 75
2018-04-27 04:00:00 12 4 Sudoeste 9 Sudoeste 0 959.2 -1.6 72
2018-04-27 03:00:00 12.6 3 Oeste 6 Sur 0 959.9 -1.2 70
2018-04-27 02:00:00 12.7 3 Sudoeste 13 Oeste 0 960.5 -0.8 67
2018-04-27 01:00:00 13 4 Oeste 6 Oeste 0 960.8 -0.3 67
2018-04-27 00:00:00 13.9 4 Oeste 9 Oeste 0 961.1 0.4 63
2018-04-26 23:00:00 15 2 Oeste 10 Oeste 0 961.3 0.5 58
2018-04-26 22:00:00 16 7 Oeste 10 Oeste 0 961.1 0 56
2018-04-26 21:00:00 19.3 2 Norte 9 Norte 0 960.7 -0.6 42
2018-04-26 20:00:00 21.2 7 Norte 15 Norte 0 960.8 -0.8 34
2018-04-26 19:00:00 21.8 9 Norte 21 Noroeste 0 961.1 -1.3 33
2018-04-26 18:00:00 22.3 10 Norte 22 Norte 0 961.3 -1.9 34
2018-04-26 17:00:00 22 8 Norte 21 Norte 0 961.6 -2.3 35
2018-04-26 16:00:00 21.3 9 Norte 23 Norte 0 962.4 -2.3 37
2018-04-26 15:00:00 20.8 10 Norte 25 Norte 0 963.2 -2.2 39
2018-04-26 14:00:00 19.3 10 Norte 27 Norte 0 963.9 -2 42
2018-04-26 13:00:00 18.6 11 Noroeste 27 Noroeste 0 964.7 -1.5 43
2018-04-26 12:00:00 17.5 10 Noroeste 18 Norte 0 965.4 -0.8 47
2018-04-26 11:00:00 16.3 9 Oeste 21 Oeste 0 965.9 0.1 50
2018-04-26 10:00:00 14.7 12 Oeste 22 Oeste 0 966.2 0.7 55
2018-04-26 09:00:00 12.9 10 Sudoeste 23 Oeste 0 966.2 0.4 64
2018-04-26 08:00:00 11.4 10 Sudoeste 20 Sudoeste 0 965.8 0 71
2018-04-26 07:00:00 11.1 9 Sudoeste 16 Sudoeste 0 965.5 -0.6 72
2018-04-26 06:00:00 11.5 10 Sudoeste 15 Sudoeste 0 965.8 -0.7 72
2018-04-26 05:00:00 11.8 7 Oeste 13 Oeste 0 965.8 -1.1 72
2018-04-26 04:00:00 12 7 Oeste 14 Sudoeste 0 966.1 -1.1 72
2018-04-26 03:00:00 12.2 6 Sudoeste 14 Oeste 0 966.5 -0.3 72
2018-04-26 02:00:00 12.7 5 Oeste 14 Oeste 0 966.9 0.6 71
2018-04-26 01:00:00 13.9 6 Oeste 22 Oeste 0 967.2 2.6 68
2018-04-26 00:00:00 14.9 10 Noroeste 27 Oeste 0 966.8 3.7 64
2018-04-25 23:00:00 16.7 14 Noroeste 33 Noroeste 0 966.3 4.1 60
2018-04-25 22:00:00 18.8 21 Noroeste 39 Noroeste 0 964.6 2.6 57
2018-04-25 21:00:00 22.5 5 Sudoeste 15 Sur 0 963.1 1.1 27
2018-04-25 20:00:00 24.6 9 Sudeste 18 Este 0 962.2 -0.1 23
2018-04-25 19:00:00 25.6 10 Este 22 Nordeste 0 962 -0.9 25
2018-04-25 18:00:00 26.2 10 Norte 20 Norte 0 962 -1.5 26
2018-04-25 17:00:00 25.4 12 Norte 23 Norte 0 962.3 -1.8 27
2018-04-25 16:00:00 24.7 12 Norte 22 Noroeste 0 962.9 -1.7 28
2018-04-25 15:00:00 23.7 9 Norte 18 Norte 0 963.5 -1.6 30
2018-04-25 14:00:00 22.8 10 Norte 17 Norte 0 964.1 -1 32
2018-04-25 13:00:00 21.7 10 Norte 16 Norte 0 964.6 -0.2 38
2018-04-25 12:00:00 20.3 6 Norte 13 Norte 0 965.1 0.2 44
2018-04-25 11:00:00 18.9 5 Nordeste 12 Norte 0 965.1 0.7 48
2018-04-25 10:00:00 17.4 6 Sudoeste 13 Sudoeste 0 964.8 0.7 44
2018-04-25 09:00:00 14.2 7 Sudoeste 19 Sudoeste 0 964.9 1.7 56
2018-04-25 08:00:00 12.5 10 Sudoeste 15 Sudoeste 0 964.4 1.5 60
2018-04-25 07:00:00 12.6 9 Sudoeste 14 Sudoeste 0 964.1 1.3 59
2018-04-25 06:00:00 13.3 8 Sudoeste 17 Sudoeste 0 963.2 -0.5 56
2018-04-25 05:00:00 13.9 9 Sudoeste 17 Sudoeste 0 962.9 -0.7 55
2018-04-25 04:00:00 15.8 9 Sudoeste 22 Sudoeste 0 962.8 -0.8 47
2018-04-25 03:00:00 16.9 11 Sudoeste 21 Sudoeste 0 963.7 0 44
2018-04-25 02:00:00 16.6 14 Sudoeste 21 Sudoeste 0 963.6 -0.1 47
2018-04-25 01:00:00 18.2 8 Sur 23 Sudoeste 0 963.6 0.5 40
2018-04-25 00:00:00 18.6 10 Sur 21 Sur 0 963.7 1.1 39
2018-04-24 23:00:00 17.9 5 Sur 11 Sur 0 963.7 1.3 43
2018-04-24 22:00:00 18.9 7 Oeste 9 Oeste 0 963.1 0.3 46
2018-04-24 21:00:00 22.3 4 Nordeste 11 Este 0 962.6 -0.2 31
2018-04-24 20:00:00 24.4 5 Sudeste 16 Sur 0 962.4 -0.7 22
2018-04-24 19:00:00 25.1 10 Sudeste 25 Sudeste 0 962.8 -0.9 23
2018-04-24 18:00:00 25.3 12 Sur 22 Sudeste 0 962.8 -1.6 23
2018-04-24 17:00:00 26.2 9 Noroeste 20 Noroeste 0 963.1 -1.9 26
2018-04-24 16:00:00 25.6 9 Norte 18 Nordeste 0 963.7 -2 29
2018-04-24 15:00:00 23.7 12 Norte 22 Nordeste 0 964.4 -1.9 37
2018-04-24 14:00:00 22.3 10 Norte 19 Norte 0 965 -1.6 44
2018-04-24 13:00:00 20.9 9 Norte 17 Norte 0 965.7 -0.9 47
2018-04-24 12:00:00 19.5 5 Norte 13 Norte 0 966.3 0.1 52
2018-04-24 11:00:00 18.4 4 Nordeste 9 Norte 0 966.6 0.6 53
2018-04-24 10:00:00 16.2 5 Norte 8 Norte 0 966.6 1.3 58
2018-04-24 09:00:00 13.7 4 Sudoeste 12 Sudoeste 0 966.2 0.9 64
2018-04-24 08:00:00 11.6 8 Sudoeste 14 Sudoeste 0 966 0.4 71
2018-04-24 07:00:00 11.5 6 Sudoeste 15 Sudoeste 0 965.3 -0.3 69
2018-04-24 06:00:00 11.8 4 Oeste 10 Sudoeste 0 965.3 -0.3 69
2018-04-24 05:00:00 12.8 9 Sudoeste 12 Sudoeste 0 965.6 -0.5 65
2018-04-24 04:00:00 12.2 6 Sudoeste 9 Sudoeste 0 965.6 -0.2 67
2018-04-24 03:00:00 13.4 9 Sudoeste 12 Sudoeste 0 965.6 -0.1 61
2018-04-24 02:00:00 14.3 2 Sudeste 20 Norte 0 966.1 0.1 60
2018-04-24 01:00:00 15.7 11 Sur 19 Sudoeste 0 965.8 0 51
2018-04-24 00:00:00 16.3 9 Sur 19 Sur 0 965.7 -0.3 50
2018-04-23 23:00:00 16 9 Sudoeste 14 Sudoeste 0 966 -0.1 55
2018-04-23 22:00:00 15.6 7 Sudoeste 9 Sudoeste 0 965.8 -0.6 61
2018-04-23 21:00:00 16.8 4 Oeste 8 Este 0 966 -0.2 58
2018-04-23 20:00:00 18.5 3 Este 8 Nordeste 0 966.1 0 48
2018-04-23 19:00:00 19.1 4 Norte 15 Noroeste 0 966.4 0.2 44
2018-04-23 18:00:00 18.8 12 Norte 22 Norte 0 966.2 0.7 47
2018-04-23 17:00:00 20.3 11 Norte 24 Nordeste 0 966.1 0 45
2018-04-23 16:00:00 20.4 13 Norte 28 Noroeste 0 966.2 0.1 49
2018-04-23 15:00:00 20.8 8 Nordeste 20 Norte 0 965.5 -0.2 46
2018-04-23 14:00:00 21.4 13 Norte 19 Norte 0 966.1 0.2 50
2018-04-23 13:00:00 20.2 3 Noroeste 9 Noroeste 0 966.1 0.1 40
2018-04-23 12:00:00 18 6 Norte 15 Nordeste 0 965.7 0.2 48
2018-04-23 11:00:00 17.6 3 Norte 10 Sur 0 965.9 0.9 45
2018-04-23 10:00:00 16.5 3 Sur 15 Sudeste 0 966 1.4 57
2018-04-23 09:00:00 15 3 Noroeste 9 Sudeste 0 965.5 1.6 66
2018-04-23 08:00:00 13.9 4 Sudeste 10 Sudeste 0 965 1.1 66
2018-04-23 07:00:00 14.2 5 Sudoeste 13 Norte 0 964.6 0.7 71
2018-04-23 06:00:00 14.9 5 Oeste 11 Sur 0 963.9 0.1 62
2018-04-23 05:00:00 15.7 6 Sur 15 Sudoeste 0 963.9 0.2 57
2018-04-23 04:00:00 15.7 9 Sudoeste 16 Oeste 0 963.9 0.4 52
2018-04-23 03:00:00 16.3 7 Sudeste 11 Sudeste 0 963.8 0.2 44
2018-04-23 02:00:00 17.2 5 Oeste 14 Sudeste 0 963.7 0.2 41
2018-04-23 01:00:00 18.2 11 Sudeste 20 Sudeste 0 963.5 0.6 34
2018-04-23 00:00:00 17.2 8 Oeste 14 Sudoeste 0 963.6 1 42
2018-04-22 23:00:00 19.5 3 Sudoeste 17 Oeste 0 963.5 1.6 32
2018-04-22 22:00:00 20.3 4 Noroeste 20 Sur 0 962.9 1.2 28
2018-04-22 21:00:00 21 5 Sudoeste 22 Sudeste 0 962.6 0.4 28
2018-04-22 20:00:00 22.3 17 Sudeste 29 Sudeste 0 961.9 0 27
2018-04-22 19:00:00 23.6 18 Sudeste 26 Este 0 961.7 -0.7 31
2018-04-22 18:00:00 23.9 14 Sudeste 25 Sudeste 0 962.2 -1.1 32
2018-04-22 17:00:00 23.6 8 Norte 18 Norte 0 961.9 -1.2 37
2018-04-22 16:00:00 23.1 7 Nordeste 19 Norte 0 962.4 -1.4 37
2018-04-22 15:00:00 21.7 10 Norte 16 Noroeste 0 963.3 -1.4 35
2018-04-22 14:00:00 20.3 6 Noroeste 17 Este 0 963.1 -1.5 39
2018-04-22 13:00:00 19.7 6 Nordeste 12 Sur 0 963.8 -0.8 38
2018-04-22 12:00:00 20 4 Norte 11 Norte 0 964.7 0.5 32
2018-04-22 11:00:00 18.8 2 Oeste 11 Sudoeste 0 964.6 0.5 32
2018-04-22 10:00:00 17.1 6 Sur 14 Sudoeste 0 964.6 0.9 38
2018-04-22 09:00:00 14.3 7 Sur 18 Sudoeste 0 964.2 0.5 48
2018-04-22 08:00:00 11.7 14 Sudoeste 21 Sudoeste 0 964.1 0.2 55
2018-04-22 07:00:00 11.7 14 Sudoeste 18 Sudoeste 0 963.7 -0.6 54
2018-04-22 06:00:00 12.5 12 Sudoeste 18 Sudoeste 0 963.7 -0.9 54
2018-04-22 05:00:00 13.3 10 Sudoeste 14 Sudoeste 0 963.9 -0.4 52
2018-04-22 04:00:00 14.3 9 Oeste 19 Oeste 0 964.3 0.2 49
2018-04-22 03:00:00 14.8 11 Oeste 31 Sudoeste 0 964.6 0.2 49
2018-04-22 02:00:00 16.4 17 Sur 33 Sur 0 964.3 -0.2 42
2018-04-22 01:00:00 16.8 21 Sur 40 Sur 0 964.1 -0.4 42
2018-04-22 00:00:00 16.7 16 Sur 33 Sur 0 964.4 0.2 46